sensor_id;sensor_type;location;lat;lon;timestamp;P1;durP1;ratioP1;P2;durP2;ratioP2
7440;SDS011;29616;51.950;8.572;2023-05-10T00:01:22;42.10;;;11.77;;
7440;SDS011;29616;51.950;8.572;2023-05-10T00:03:51;37.33;;;13.50;;
7440;SDS011;29616;51.950;8.572;2023-05-10T00:06:21;33.28;;;11.48;;
7440;SDS011;29616;51.950;8.572;2023-05-10T00:08:51;39.65;;;12.60;;
7440;SDS011;29616;51.950;8.572;2023-05-10T00:11:22;43.05;;;12.02;;
7440;SDS011;29616;51.950;8.572;2023-05-10T00:13:50;46.17;;;12.95;;
7440;SDS011;29616;51.950;8.572;2023-05-10T00:16:20;48.55;;;13.75;;
7440;SDS011;29616;51.950;8.572;2023-05-10T00:18:50;45.38;;;14.05;;
7440;SDS011;29616;51.950;8.572;2023-05-10T00:21:19;44.42;;;12.85;;
7440;SDS011;29616;51.950;8.572;2023-05-10T00:23:49;41.92;;;14.05;;
7440;SDS011;29616;51.950;8.572;2023-05-10T00:26:18;40.75;;;13.32;;
7440;SDS011;29616;51.950;8.572;2023-05-10T00:28:51;57.80;;;14.77;;
7440;SDS011;29616;51.950;8.572;2023-05-10T00:31:19;51.80;;;13.10;;
7440;SDS011;29616;51.950;8.572;2023-05-10T00:33:50;52.17;;;14.32;;
7440;SDS011;29616;51.950;8.572;2023-05-10T00:36:19;46.97;;;12.80;;
7440;SDS011;29616;51.950;8.572;2023-05-10T00:38:50;64.55;;;14.10;;
7440;SDS011;29616;51.950;8.572;2023-05-10T00:41:20;48.30;;;11.77;;
7440;SDS011;29616;51.950;8.572;2023-05-10T00:46:16;50.58;;;13.73;;
7440;SDS011;29616;51.950;8.572;2023-05-10T00:48:47;42.00;;;13.77;;
7440;SDS011;29616;51.950;8.572;2023-05-10T00:51:17;48.65;;;15.23;;
7440;SDS011;29616;51.950;8.572;2023-05-10T00:53:46;58.05;;;14.55;;
7440;SDS011;29616;51.950;8.572;2023-05-10T00:56:15;51.72;;;12.98;;
7440;SDS011;29616;51.950;8.572;2023-05-10T00:58:45;44.45;;;13.10;;
7440;SDS011;29616;51.950;8.572;2023-05-10T01:01:13;45.03;;;10.30;;
7440;SDS011;29616;51.950;8.572;2023-05-10T01:03:43;46.60;;;12.50;;
7440;SDS011;29616;51.950;8.572;2023-05-10T01:06:15;47.35;;;10.68;;
7440;SDS011;29616;51.950;8.572;2023-05-10T01:08:46;41.72;;;13.05;;
7440;SDS011;29616;51.950;8.572;2023-05-10T01:11:16;44.35;;;12.45;;
7440;SDS011;29616;51.950;8.572;2023-05-10T01:13:45;38.25;;;11.90;;
7440;SDS011;29616;51.950;8.572;2023-05-10T01:16:21;47.03;;;13.82;;
7440;SDS011;29616;51.950;8.572;2023-05-10T01:18:51;49.42;;;14.70;;
7440;SDS011;29616;51.950;8.572;2023-05-10T01:21:25;51.85;;;12.32;;
7440;SDS011;29616;51.950;8.572;2023-05-10T01:24:09;52.30;;;14.48;;
7440;SDS011;29616;51.950;8.572;2023-05-10T01:27:11;49.35;;;14.75;;
7440;SDS011;29616;51.950;8.572;2023-05-10T01:30:19;54.35;;;14.93;;
7440;SDS011;29616;51.950;8.572;2023-05-10T01:33:21;56.63;;;14.50;;
7440;SDS011;29616;51.950;8.572;2023-05-10T01:35:55;51.38;;;15.00;;
7440;SDS011;29616;51.950;8.572;2023-05-10T01:38:32;55.65;;;15.48;;
7440;SDS011;29616;51.950;8.572;2023-05-10T01:41:12;63.58;;;13.95;;
7440;SDS011;29616;51.950;8.572;2023-05-10T01:43:52;58.53;;;13.95;;
7440;SDS011;29616;51.950;8.572;2023-05-10T01:46:31;63.08;;;14.70;;
7440;SDS011;29616;51.950;8.572;2023-05-10T01:49:07;67.93;;;17.13;;
7440;SDS011;29616;51.950;8.572;2023-05-10T01:51:39;69.43;;;17.08;;
7440;SDS011;29616;51.950;8.572;2023-05-10T01:54:14;59.72;;;17.60;;
7440;SDS011;29616;51.950;8.572;2023-05-10T01:56:47;56.72;;;15.77;;
7440;SDS011;29616;51.950;8.572;2023-05-10T01:59:26;36.17;;;12.68;;
7440;SDS011;29616;51.950;8.572;2023-05-10T02:02:09;41.40;;;12.10;;
7440;SDS011;29616;51.950;8.572;2023-05-10T02:04:40;39.70;;;12.15;;
7440;SDS011;29616;51.950;8.572;2023-05-10T02:07:10;39.65;;;11.75;;
7440;SDS011;29616;51.950;8.572;2023-05-10T02:09:40;36.75;;;11.82;;
7440;SDS011;29616;51.950;8.572;2023-05-10T02:12:16;36.58;;;11.50;;
7440;SDS011;29616;51.950;8.572;2023-05-10T02:14:45;28.98;;;10.23;;
7440;SDS011;29616;51.950;8.572;2023-05-10T02:17:15;29.15;;;10.18;;
7440;SDS011;29616;51.950;8.572;2023-05-10T02:19:45;32.63;;;10.00;;
7440;SDS011;29616;51.950;8.572;2023-05-10T02:22:17;32.70;;;7.57;;
7440;SDS011;29616;51.950;8.572;2023-05-10T02:24:48;30.77;;;9.45;;
7440;SDS011;29616;51.950;8.572;2023-05-10T02:27:20;25.88;;;9.10;;
7440;SDS011;29616;51.950;8.572;2023-05-10T02:29:49;32.95;;;10.90;;
7440;SDS011;29616;51.950;8.572;2023-05-10T02:32:21;27.70;;;8.23;;
7440;SDS011;29616;51.950;8.572;2023-05-10T02:34:53;26.73;;;8.95;;
7440;SDS011;29616;51.950;8.572;2023-05-10T02:37:24;23.00;;;5.90;;
7440;SDS011;29616;51.950;8.572;2023-05-10T02:39:55;27.38;;;7.95;;
7440;SDS011;29616;51.950;8.572;2023-05-10T02:42:26;22.98;;;7.68;;
7440;SDS011;29616;51.950;8.572;2023-05-10T02:45:01;23.58;;;8.10;;
7440;SDS011;29616;51.950;8.572;2023-05-10T02:47:34;18.60;;;5.20;;
7440;SDS011;29616;51.950;8.572;2023-05-10T02:50:06;24.15;;;7.80;;
7440;SDS011;29616;51.950;8.572;2023-05-10T02:52:38;28.55;;;8.82;;
7440;SDS011;29616;51.950;8.572;2023-05-10T02:55:11;26.27;;;8.55;;
7440;SDS011;29616;51.950;8.572;2023-05-10T02:57:46;27.73;;;9.10;;
7440;SDS011;29616;51.950;8.572;2023-05-10T03:00:22;36.40;;;9.82;;
7440;SDS011;29616;51.950;8.572;2023-05-10T03:02:52;36.08;;;10.13;;
7440;SDS011;29616;51.950;8.572;2023-05-10T03:05:23;30.48;;;9.13;;
7440;SDS011;29616;51.950;8.572;2023-05-10T03:07:52;35.55;;;13.10;;
7440;SDS011;29616;51.950;8.572;2023-05-10T03:10:22;41.67;;;14.43;;
7440;SDS011;29616;51.950;8.572;2023-05-10T03:13:01;44.30;;;13.50;;
7440;SDS011;29616;51.950;8.572;2023-05-10T03:15:42;40.78;;;11.50;;
7440;SDS011;29616;51.950;8.572;2023-05-10T03:18:22;30.27;;;10.10;;
7440;SDS011;29616;51.950;8.572;2023-05-10T03:20:57;51.45;;;16.65;;
7440;SDS011;29616;51.950;8.572;2023-05-10T03:23:34;53.72;;;14.55;;
7440;SDS011;29616;51.950;8.572;2023-05-10T03:26:09;43.67;;;12.70;;
7440;SDS011;29616;51.950;8.572;2023-05-10T03:28:46;57.70;;;14.30;;
7440;SDS011;29616;51.950;8.572;2023-05-10T03:31:17;46.25;;;12.65;;
7440;SDS011;29616;51.950;8.572;2023-05-10T03:33:47;49.33;;;12.88;;
7440;SDS011;29616;51.950;8.572;2023-05-10T03:36:24;52.78;;;12.57;;
7440;SDS011;29616;51.950;8.572;2023-05-10T03:38:54;47.30;;;12.90;;
7440;SDS011;29616;51.950;8.572;2023-05-10T03:41:24;43.70;;;11.82;;
7440;SDS011;29616;51.950;8.572;2023-05-10T03:43:53;27.35;;;7.75;;
7440;SDS011;29616;51.950;8.572;2023-05-10T03:46:21;33.47;;;11.55;;
7440;SDS011;29616;51.950;8.572;2023-05-10T03:48:50;38.53;;;16.80;;
7440;SDS011;29616;51.950;8.572;2023-05-10T03:51:21;32.40;;;12.27;;
7440;SDS011;29616;51.950;8.572;2023-05-10T03:53:53;34.58;;;11.48;;
7440;SDS011;29616;51.950;8.572;2023-05-10T03:56:23;28.67;;;8.55;;
7440;SDS011;29616;51.950;8.572;2023-05-10T03:58:52;28.60;;;9.85;;
7440;SDS011;29616;51.950;8.572;2023-05-10T04:01:22;36.45;;;12.38;;
7440;SDS011;29616;51.950;8.572;2023-05-10T04:03:50;28.90;;;10.10;;
7440;SDS011;29616;51.950;8.572;2023-05-10T04:06:20;19.42;;;7.60;;
7440;SDS011;29616;51.950;8.572;2023-05-10T04:08:54;20.92;;;8.23;;
7440;SDS011;29616;51.950;8.572;2023-05-10T04:11:22;18.92;;;7.18;;
7440;SDS011;29616;51.950;8.572;2023-05-10T04:13:52;12.95;;;5.63;;
7440;SDS011;29616;51.950;8.572;2023-05-10T04:16:22;10.23;;;3.90;;
7440;SDS011;29616;51.950;8.572;2023-05-10T04:18:51;12.65;;;5.07;;
7440;SDS011;29616;51.950;8.572;2023-05-10T04:21:19;9.02;;;3.92;;
7440;SDS011;29616;51.950;8.572;2023-05-10T04:23:49;7.45;;;3.15;;
7440;SDS011;29616;51.950;8.572;2023-05-10T04:26:19;12.55;;;3.95;;
7440;SDS011;29616;51.950;8.572;2023-05-10T04:28:48;6.82;;;3.25;;
7440;SDS011;29616;51.950;8.572;2023-05-10T04:31:18;8.07;;;4.55;;
7440;SDS011;29616;51.950;8.572;2023-05-10T04:33:47;6.90;;;3.33;;
7440;SDS011;29616;51.950;8.572;2023-05-10T04:36:17;8.70;;;3.67;;
7440;SDS011;29616;51.950;8.572;2023-05-10T04:38:45;8.25;;;3.70;;
7440;SDS011;29616;51.950;8.572;2023-05-10T04:41:15;7.85;;;4.50;;
7440;SDS011;29616;51.950;8.572;2023-05-10T04:43:46;9.10;;;4.28;;
7440;SDS011;29616;51.950;8.572;2023-05-10T04:46:16;6.93;;;2.17;;
7440;SDS011;29616;51.950;8.572;2023-05-10T04:48:44;7.88;;;2.55;;
7440;SDS011;29616;51.950;8.572;2023-05-10T04:51:14;8.00;;;4.32;;
7440;SDS011;29616;51.950;8.572;2023-05-10T04:53:43;10.27;;;3.38;;
7440;SDS011;29616;51.950;8.572;2023-05-10T04:56:31;9.98;;;2.83;;
7440;SDS011;29616;51.950;8.572;2023-05-10T04:59:03;7.88;;;2.45;;
7440;SDS011;29616;51.950;8.572;2023-05-10T05:01:34;11.13;;;4.82;;
7440;SDS011;29616;51.950;8.572;2023-05-10T05:04:04;9.45;;;3.03;;
7440;SDS011;29616;51.950;8.572;2023-05-10T05:06:33;9.90;;;5.30;;
7440;SDS011;29616;51.950;8.572;2023-05-10T05:09:01;9.38;;;2.78;;
7440;SDS011;29616;51.950;8.572;2023-05-10T05:11:30;10.18;;;4.97;;
7440;SDS011;29616;51.950;8.572;2023-05-10T05:13:59;9.18;;;4.40;;
7440;SDS011;29616;51.950;8.572;2023-05-10T05:19:00;9.65;;;4.18;;
7440;SDS011;29616;51.950;8.572;2023-05-10T05:21:28;8.68;;;4.82;;
7440;SDS011;29616;51.950;8.572;2023-05-10T05:23:59;9.80;;;5.78;;
7440;SDS011;29616;51.950;8.572;2023-05-10T05:26:28;11.02;;;5.60;;
7440;SDS011;29616;51.950;8.572;2023-05-10T05:28:57;7.63;;;4.93;;
7440;SDS011;29616;51.950;8.572;2023-05-10T05:31:25;8.70;;;4.07;;
7440;SDS011;29616;51.950;8.572;2023-05-10T05:33:58;8.10;;;4.25;;
7440;SDS011;29616;51.950;8.572;2023-05-10T05:36:26;10.48;;;4.40;;
7440;SDS011;29616;51.950;8.572;2023-05-10T05:38:56;7.70;;;4.00;;
7440;SDS011;29616;51.950;8.572;2023-05-10T05:43:53;8.73;;;4.78;;
7440;SDS011;29616;51.950;8.572;2023-05-10T05:46:22;7.65;;;4.65;;
7440;SDS011;29616;51.950;8.572;2023-05-10T05:48:52;9.55;;;5.13;;
7440;SDS011;29616;51.950;8.572;2023-05-10T05:51:23;8.63;;;4.40;;
7440;SDS011;29616;51.950;8.572;2023-05-10T05:53:51;10.23;;;4.68;;
7440;SDS011;29616;51.950;8.572;2023-05-10T05:56:21;8.48;;;4.70;;
7440;SDS011;29616;51.950;8.572;2023-05-10T05:58:52;19.13;;;7.85;;
7440;SDS011;29616;51.950;8.572;2023-05-10T06:01:20;5.95;;;3.78;;
7440;SDS011;29616;51.950;8.572;2023-05-10T06:03:49;15.45;;;5.43;;
7440;SDS011;29616;51.950;8.572;2023-05-10T06:06:20;8.82;;;3.67;;
7440;SDS011;29616;51.950;8.572;2023-05-10T06:08:49;8.68;;;5.45;;
7440;SDS011;29616;51.950;8.572;2023-05-10T06:11:18;6.68;;;3.30;;
7440;SDS011;29616;51.950;8.572;2023-05-10T06:13:49;8.60;;;4.32;;
7440;SDS011;29616;51.950;8.572;2023-05-10T06:18:49;7.05;;;4.18;;
7440;SDS011;29616;51.950;8.572;2023-05-10T06:21:17;10.77;;;4.60;;
7440;SDS011;29616;51.950;8.572;2023-05-10T06:23:47;8.45;;;4.18;;
7440;SDS011;29616;51.950;8.572;2023-05-10T06:26:17;10.90;;;5.40;;
7440;SDS011;29616;51.950;8.572;2023-05-10T06:28:49;11.55;;;5.32;;
7440;SDS011;29616;51.950;8.572;2023-05-10T06:31:18;10.02;;;5.50;;
7440;SDS011;29616;51.950;8.572;2023-05-10T06:36:15;10.48;;;4.88;;
7440;SDS011;29616;51.950;8.572;2023-05-10T06:38:45;13.95;;;9.00;;
7440;SDS011;29616;51.950;8.572;2023-05-10T06:41:15;7.82;;;3.45;;
7440;SDS011;29616;51.950;8.572;2023-05-10T06:43:45;12.32;;;5.90;;
7440;SDS011;29616;51.950;8.572;2023-05-10T06:46:13;10.90;;;5.07;;
7440;SDS011;29616;51.950;8.572;2023-05-10T06:48:42;8.68;;;5.85;;
7440;SDS011;29616;51.950;8.572;2023-05-10T06:51:11;9.30;;;6.55;;
7440;SDS011;29616;51.950;8.572;2023-05-10T06:53:40;11.27;;;5.38;;
7440;SDS011;29616;51.950;8.572;2023-05-10T06:56:09;1149.53;;;496.33;;
7440;SDS011;29616;51.950;8.572;2023-05-10T06:58:39;888.22;;;295.92;;
7440;SDS011;29616;51.950;8.572;2023-05-10T07:01:09;746.30;;;265.23;;
7440;SDS011;29616;51.950;8.572;2023-05-10T07:03:39;663.72;;;245.27;;
7440;SDS011;29616;51.950;8.572;2023-05-10T07:06:10;241.15;;;94.90;;
7440;SDS011;29616;51.950;8.572;2023-05-10T07:08:52;17.80;;;13.18;;
7440;SDS011;29616;51.950;8.572;2023-05-10T07:11:22;62.35;;;30.05;;
7440;SDS011;29616;51.950;8.572;2023-05-10T07:13:54;515.40;;;199.60;;
7440;SDS011;29616;51.950;8.572;2023-05-10T07:16:23;515.78;;;210.13;;
7440;SDS011;29616;51.950;8.572;2023-05-10T07:18:53;166.85;;;68.07;;
7440;SDS011;29616;51.950;8.572;2023-05-10T07:21:23;11.20;;;6.07;;
7440;SDS011;29616;51.950;8.572;2023-05-10T07:23:55;14.13;;;6.43;;
7440;SDS011;29616;51.950;8.572;2023-05-10T07:26:25;12.18;;;7.07;;
7440;SDS011;29616;51.950;8.572;2023-05-10T07:28:57;9.55;;;6.22;;
7440;SDS011;29616;51.950;8.572;2023-05-10T07:31:25;8.85;;;5.63;;
7440;SDS011;29616;51.950;8.572;2023-05-10T07:33:55;10.80;;;6.78;;
7440;SDS011;29616;51.950;8.572;2023-05-10T07:36:24;14.52;;;7.43;;
7440;SDS011;29616;51.950;8.572;2023-05-10T07:38:56;13.70;;;6.63;;
7440;SDS011;29616;51.950;8.572;2023-05-10T07:41:25;11.20;;;6.32;;
7440;SDS011;29616;51.950;8.572;2023-05-10T07:43:57;12.45;;;6.47;;
7440;SDS011;29616;51.950;8.572;2023-05-10T07:46:25;10.75;;;6.97;;
7440;SDS011;29616;51.950;8.572;2023-05-10T07:48:56;13.00;;;7.10;;
7440;SDS011;29616;51.950;8.572;2023-05-10T07:51:24;13.02;;;6.15;;
7440;SDS011;29616;51.950;8.572;2023-05-10T07:53:56;14.70;;;5.30;;
7440;SDS011;29616;51.950;8.572;2023-05-10T07:56:27;16.27;;;7.03;;
7440;SDS011;29616;51.950;8.572;2023-05-10T07:58:59;16.60;;;8.45;;
7440;SDS011;29616;51.950;8.572;2023-05-10T08:01:33;15.10;;;7.28;;
7440;SDS011;29616;51.950;8.572;2023-05-10T08:04:01;17.50;;;8.88;;
7440;SDS011;29616;51.950;8.572;2023-05-10T08:06:32;19.08;;;9.60;;
7440;SDS011;29616;51.950;8.572;2023-05-10T08:09:01;57.80;;;25.15;;
7440;SDS011;29616;51.950;8.572;2023-05-10T08:11:31;556.85;;;214.48;;
7440;SDS011;29616;51.950;8.572;2023-05-10T08:14:03;608.00;;;253.38;;
7440;SDS011;29616;51.950;8.572;2023-05-10T08:16:33;20.05;;;8.88;;
7440;SDS011;29616;51.950;8.572;2023-05-10T08:19:02;279.23;;;110.93;;
7440;SDS011;29616;51.950;8.572;2023-05-10T08:21:32;19.33;;;8.70;;
7440;SDS011;29616;51.950;8.572;2023-05-10T08:24:00;23.65;;;8.90;;
7440;SDS011;29616;51.950;8.572;2023-05-10T08:26:32;19.48;;;7.18;;
7440;SDS011;29616;51.950;8.572;2023-05-10T08:29:03;13.73;;;8.63;;
7440;SDS011;29616;51.950;8.572;2023-05-10T08:31:32;19.35;;;9.75;;
7440;SDS011;29616;51.950;8.572;2023-05-10T08:34:00;20.50;;;8.95;;
7440;SDS011;29616;51.950;8.572;2023-05-10T08:36:31;24.00;;;10.27;;
7440;SDS011;29616;51.950;8.572;2023-05-10T08:39:02;18.92;;;10.30;;
7440;SDS011;29616;51.950;8.572;2023-05-10T08:41:37;21.65;;;10.70;;
7440;SDS011;29616;51.950;8.572;2023-05-10T08:44:11;18.20;;;8.23;;
7440;SDS011;29616;51.950;8.572;2023-05-10T08:46:42;17.05;;;8.38;;
7440;SDS011;29616;51.950;8.572;2023-05-10T08:49:16;16.52;;;7.47;;
7440;SDS011;29616;51.950;8.572;2023-05-10T08:51:49;14.18;;;6.03;;
7440;SDS011;29616;51.950;8.572;2023-05-10T08:54:22;19.52;;;9.52;;
7440;SDS011;29616;51.950;8.572;2023-05-10T08:56:53;24.58;;;12.43;;
7440;SDS011;29616;51.950;8.572;2023-05-10T08:59:22;26.10;;;11.68;;
7440;SDS011;29616;51.950;8.572;2023-05-10T09:01:51;26.60;;;13.65;;
7440;SDS011;29616;51.950;8.572;2023-05-10T09:04:24;19.58;;;8.23;;
7440;SDS011;29616;51.950;8.572;2023-05-10T09:06:54;23.05;;;11.85;;
7440;SDS011;29616;51.950;8.572;2023-05-10T09:09:22;23.77;;;10.95;;
7440;SDS011;29616;51.950;8.572;2023-05-10T09:11:55;24.15;;;11.90;;
7440;SDS011;29616;51.950;8.572;2023-05-10T09:14:25;21.05;;;8.35;;
7440;SDS011;29616;51.950;8.572;2023-05-10T09:16:56;24.17;;;11.13;;
7440;SDS011;29616;51.950;8.572;2023-05-10T09:19:24;23.55;;;13.52;;
7440;SDS011;29616;51.950;8.572;2023-05-10T09:21:54;23.30;;;11.77;;
7440;SDS011;29616;51.950;8.572;2023-05-10T09:24:25;26.48;;;15.52;;
7440;SDS011;29616;51.950;8.572;2023-05-10T09:26:56;31.33;;;16.40;;
7440;SDS011;29616;51.950;8.572;2023-05-10T09:29:26;25.48;;;15.02;;
7440;SDS011;29616;51.950;8.572;2023-05-10T09:32:08;22.70;;;11.68;;
7440;SDS011;29616;51.950;8.572;2023-05-10T09:34:39;24.05;;;11.25;;
7440;SDS011;29616;51.950;8.572;2023-05-10T09:37:10;23.35;;;12.88;;
7440;SDS011;29616;51.950;8.572;2023-05-10T09:39:39;22.38;;;12.05;;
7440;SDS011;29616;51.950;8.572;2023-05-10T09:42:08;26.45;;;14.50;;
7440;SDS011;29616;51.950;8.572;2023-05-10T09:44:40;22.35;;;12.48;;
7440;SDS011;29616;51.950;8.572;2023-05-10T09:47:11;20.10;;;10.80;;
7440;SDS011;29616;51.950;8.572;2023-05-10T09:49:48;19.77;;;8.88;;
7440;SDS011;29616;51.950;8.572;2023-05-10T09:52:18;21.67;;;11.95;;
7440;SDS011;29616;51.950;8.572;2023-05-10T09:54:52;19.17;;;9.70;;
7440;SDS011;29616;51.950;8.572;2023-05-10T09:57:23;16.27;;;8.13;;
7440;SDS011;29616;51.950;8.572;2023-05-10T09:59:55;18.13;;;10.48;;
7440;SDS011;29616;51.950;8.572;2023-05-10T10:02:28;19.67;;;7.68;;
7440;SDS011;29616;51.950;8.572;2023-05-10T10:04:58;18.25;;;6.47;;
7440;SDS011;29616;51.950;8.572;2023-05-10T10:07:30;19.55;;;9.23;;
7440;SDS011;29616;51.950;8.572;2023-05-10T10:09:59;18.17;;;8.43;;
7440;SDS011;29616;51.950;8.572;2023-05-10T10:12:30;21.85;;;10.32;;
7440;SDS011;29616;51.950;8.572;2023-05-10T10:15:01;16.15;;;10.15;;
7440;SDS011;29616;51.950;8.572;2023-05-10T10:17:32;22.42;;;13.48;;
7440;SDS011;29616;51.950;8.572;2023-05-10T10:20:07;19.67;;;11.80;;
7440;SDS011;29616;51.950;8.572;2023-05-10T10:22:37;20.15;;;13.15;;
7440;SDS011;29616;51.950;8.572;2023-05-10T10:25:08;23.52;;;13.25;;
7440;SDS011;29616;51.950;8.572;2023-05-10T10:27:43;20.50;;;11.30;;
7440;SDS011;29616;51.950;8.572;2023-05-10T10:30:25;14.57;;;8.73;;
7440;SDS011;29616;51.950;8.572;2023-05-10T10:36:04;11.40;;;5.60;;
7440;SDS011;29616;51.950;8.572;2023-05-10T10:38:36;10.07;;;7.00;;
7440;SDS011;29616;51.950;8.572;2023-05-10T10:41:27;11.13;;;5.03;;
7440;SDS011;29616;51.950;8.572;2023-05-10T10:47:08;11.15;;;5.45;;
7440;SDS011;29616;51.950;8.572;2023-05-10T10:50:04;12.35;;;6.20;;
7440;SDS011;29616;51.950;8.572;2023-05-10T10:52:37;7.47;;;4.25;;
7440;SDS011;29616;51.950;8.572;2023-05-10T10:55:07;10.60;;;5.80;;
7440;SDS011;29616;51.950;8.572;2023-05-10T10:57:44;10.20;;;7.35;;
7440;SDS011;29616;51.950;8.572;2023-05-10T11:03:05;11.52;;;8.05;;
7440;SDS011;29616;51.950;8.572;2023-05-10T11:05:35;12.38;;;7.20;;
7440;SDS011;29616;51.950;8.572;2023-05-10T11:08:12;12.02;;;5.53;;
7440;SDS011;29616;51.950;8.572;2023-05-10T11:10:49;9.40;;;4.97;;
7440;SDS011;29616;51.950;8.572;2023-05-10T11:13:27;7.13;;;3.50;;
7440;SDS011;29616;51.950;8.572;2023-05-10T11:15:57;8.88;;;4.72;;
7440;SDS011;29616;51.950;8.572;2023-05-10T11:18:31;7.90;;;5.35;;
7440;SDS011;29616;51.950;8.572;2023-05-10T11:21:01;9.63;;;5.32;;
7440;SDS011;29616;51.950;8.572;2023-05-10T11:23:33;7.60;;;3.55;;
7440;SDS011;29616;51.950;8.572;2023-05-10T11:26:18;9.20;;;5.03;;
7440;SDS011;29616;51.950;8.572;2023-05-10T11:28:51;8.80;;;4.85;;
7440;SDS011;29616;51.950;8.572;2023-05-10T11:31:24;8.23;;;3.63;;
7440;SDS011;29616;51.950;8.572;2023-05-10T11:33:56;7.78;;;4.38;;
7440;SDS011;29616;51.950;8.572;2023-05-10T11:36:32;7.78;;;3.95;;
7440;SDS011;29616;51.950;8.572;2023-05-10T11:39:04;8.35;;;3.95;;
7440;SDS011;29616;51.950;8.572;2023-05-10T11:41:33;8.32;;;4.38;;
7440;SDS011;29616;51.950;8.572;2023-05-10T11:44:03;8.48;;;3.00;;
7440;SDS011;29616;51.950;8.572;2023-05-10T11:46:33;7.30;;;4.20;;
7440;SDS011;29616;51.950;8.572;2023-05-10T11:49:02;6.95;;;3.20;;
7440;SDS011;29616;51.950;8.572;2023-05-10T11:51:33;6.93;;;3.30;;
7440;SDS011;29616;51.950;8.572;2023-05-10T11:54:05;4.88;;;2.78;;
7440;SDS011;29616;51.950;8.572;2023-05-10T11:56:38;7.82;;;3.63;;
7440;SDS011;29616;51.950;8.572;2023-05-10T11:59:08;9.00;;;4.07;;
7440;SDS011;29616;51.950;8.572;2023-05-10T12:01:38;10.05;;;6.57;;
7440;SDS011;29616;51.950;8.572;2023-05-10T12:04:09;10.25;;;5.45;;
7440;SDS011;29616;51.950;8.572;2023-05-10T12:06:40;11.18;;;4.63;;
7440;SDS011;29616;51.950;8.572;2023-05-10T12:09:09;10.05;;;4.43;;
7440;SDS011;29616;51.950;8.572;2023-05-10T12:11:38;14.27;;;6.10;;
7440;SDS011;29616;51.950;8.572;2023-05-10T12:14:11;19.48;;;11.13;;
7440;SDS011;29616;51.950;8.572;2023-05-10T12:16:40;15.38;;;6.63;;
7440;SDS011;29616;51.950;8.572;2023-05-10T12:19:13;19.83;;;9.63;;
7440;SDS011;29616;51.950;8.572;2023-05-10T12:21:46;17.70;;;7.07;;
7440;SDS011;29616;51.950;8.572;2023-05-10T12:24:15;16.58;;;7.43;;
7440;SDS011;29616;51.950;8.572;2023-05-10T12:26:44;15.25;;;7.07;;
7440;SDS011;29616;51.950;8.572;2023-05-10T12:29:16;18.85;;;9.95;;
7440;SDS011;29616;51.950;8.572;2023-05-10T12:31:50;15.38;;;8.57;;
7440;SDS011;29616;51.950;8.572;2023-05-10T12:34:26;16.08;;;9.90;;
7440;SDS011;29616;51.950;8.572;2023-05-10T12:37:00;14.40;;;7.63;;
7440;SDS011;29616;51.950;8.572;2023-05-10T12:39:38;15.55;;;9.55;;
7440;SDS011;29616;51.950;8.572;2023-05-10T12:44:38;12.63;;;7.72;;
7440;SDS011;29616;51.950;8.572;2023-05-10T12:47:08;14.32;;;9.18;;
7440;SDS011;29616;51.950;8.572;2023-05-10T12:49:39;12.38;;;5.57;;
7440;SDS011;29616;51.950;8.572;2023-05-10T12:52:08;18.75;;;8.00;;
7440;SDS011;29616;51.950;8.572;2023-05-10T12:54:36;16.17;;;9.40;;
7440;SDS011;29616;51.950;8.572;2023-05-10T12:57:05;14.85;;;6.38;;
7440;SDS011;29616;51.950;8.572;2023-05-10T12:59:36;15.43;;;6.78;;
7440;SDS011;29616;51.950;8.572;2023-05-10T13:02:06;16.25;;;7.38;;
7440;SDS011;29616;51.950;8.572;2023-05-10T13:04:37;12.20;;;6.55;;
7440;SDS011;29616;51.950;8.572;2023-05-10T13:07:07;14.07;;;7.32;;
7440;SDS011;29616;51.950;8.572;2023-05-10T13:09:35;15.38;;;9.23;;
7440;SDS011;29616;51.950;8.572;2023-05-10T13:12:04;14.23;;;6.93;;
7440;SDS011;29616;51.950;8.572;2023-05-10T13:14:36;12.90;;;6.35;;
7440;SDS011;29616;51.950;8.572;2023-05-10T13:17:08;10.73;;;6.25;;
7440;SDS011;29616;51.950;8.572;2023-05-10T13:19:40;12.20;;;5.88;;
7440;SDS011;29616;51.950;8.572;2023-05-10T13:22:09;14.25;;;8.70;;
7440;SDS011;29616;51.950;8.572;2023-05-10T13:24:39;13.32;;;6.95;;
7440;SDS011;29616;51.950;8.572;2023-05-10T13:27:08;12.77;;;6.28;;
7440;SDS011;29616;51.950;8.572;2023-05-10T13:29:36;16.05;;;9.57;;
7440;SDS011;29616;51.950;8.572;2023-05-10T13:32:04;14.00;;;7.70;;
7440;SDS011;29616;51.950;8.572;2023-05-10T13:34:34;12.52;;;6.75;;
7440;SDS011;29616;51.950;8.572;2023-05-10T13:37:06;13.13;;;6.97;;
7440;SDS011;29616;51.950;8.572;2023-05-10T13:39:36;14.02;;;7.68;;
7440;SDS011;29616;51.950;8.572;2023-05-10T13:42:04;16.25;;;8.48;;
7440;SDS011;29616;51.950;8.572;2023-05-10T13:44:34;9.43;;;4.95;;
7440;SDS011;29616;51.950;8.572;2023-05-10T13:47:03;8.35;;;3.63;;
7440;SDS011;29616;51.950;8.572;2023-05-10T13:49:32;8.27;;;4.53;;
7440;SDS011;29616;51.950;8.572;2023-05-10T13:52:03;9.15;;;4.70;;
7440;SDS011;29616;51.950;8.572;2023-05-10T13:54:34;9.60;;;4.50;;
7440;SDS011;29616;51.950;8.572;2023-05-10T13:57:03;8.25;;;3.28;;
7440;SDS011;29616;51.950;8.572;2023-05-10T13:59:34;9.30;;;5.68;;
7440;SDS011;29616;51.950;8.572;2023-05-10T14:04:30;8.77;;;5.15;;
7440;SDS011;29616;51.950;8.572;2023-05-10T14:07:00;9.13;;;4.50;;
7440;SDS011;29616;51.950;8.572;2023-05-10T14:09:29;8.73;;;3.83;;
7440;SDS011;29616;51.950;8.572;2023-05-10T14:14:29;7.50;;;4.80;;
7440;SDS011;29616;51.950;8.572;2023-05-10T14:16:57;11.57;;;5.93;;
7440;SDS011;29616;51.950;8.572;2023-05-10T14:19:26;10.18;;;6.50;;
7440;SDS011;29616;51.950;8.572;2023-05-10T14:21:58;9.88;;;4.80;;
7440;SDS011;29616;51.950;8.572;2023-05-10T14:24:27;10.05;;;5.95;;
7440;SDS011;29616;51.950;8.572;2023-05-10T14:26:56;10.35;;;6.20;;
7440;SDS011;29616;51.950;8.572;2023-05-10T14:29:27;11.75;;;8.18;;
7440;SDS011;29616;51.950;8.572;2023-05-10T14:31:55;11.18;;;7.28;;
7440;SDS011;29616;51.950;8.572;2023-05-10T14:34:25;13.40;;;8.05;;
7440;SDS011;29616;51.950;8.572;2023-05-10T14:36:54;9.95;;;5.03;;
7440;SDS011;29616;51.950;8.572;2023-05-10T14:39:23;11.95;;;6.45;;
7440;SDS011;29616;51.950;8.572;2023-05-10T14:41:53;16.17;;;8.32;;
7440;SDS011;29616;51.950;8.572;2023-05-10T14:44:22;10.95;;;6.90;;
7440;SDS011;29616;51.950;8.572;2023-05-10T14:46:54;17.08;;;8.65;;
7440;SDS011;29616;51.950;8.572;2023-05-10T14:49:25;11.82;;;5.30;;
7440;SDS011;29616;51.950;8.572;2023-05-10T14:51:55;10.63;;;4.85;;
7440;SDS011;29616;51.950;8.572;2023-05-10T14:54:23;12.00;;;6.97;;
7440;SDS011;29616;51.950;8.572;2023-05-10T14:56:54;10.90;;;5.50;;
7440;SDS011;29616;51.950;8.572;2023-05-10T14:59:24;12.55;;;6.32;;
7440;SDS011;29616;51.950;8.572;2023-05-10T15:01:54;13.13;;;4.88;;
7440;SDS011;29616;51.950;8.572;2023-05-10T15:04:24;12.88;;;5.55;;
7440;SDS011;29616;51.950;8.572;2023-05-10T15:06:56;12.05;;;6.70;;
7440;SDS011;29616;51.950;8.572;2023-05-10T15:09:27;12.93;;;7.22;;
7440;SDS011;29616;51.950;8.572;2023-05-10T15:11:57;11.48;;;4.65;;
7440;SDS011;29616;51.950;8.572;2023-05-10T15:14:28;10.60;;;7.18;;
7440;SDS011;29616;51.950;8.572;2023-05-10T15:16:59;10.63;;;6.82;;
7440;SDS011;29616;51.950;8.572;2023-05-10T15:19:28;10.77;;;4.75;;
7440;SDS011;29616;51.950;8.572;2023-05-10T15:21:58;13.60;;;7.05;;
7440;SDS011;29616;51.950;8.572;2023-05-10T15:24:27;9.80;;;4.47;;
7440;SDS011;29616;51.950;8.572;2023-05-10T15:29:24;10.27;;;6.45;;
7440;SDS011;29616;51.950;8.572;2023-05-10T15:31:52;12.18;;;5.57;;
7440;SDS011;29616;51.950;8.572;2023-05-10T15:34:23;11.85;;;5.32;;
7440;SDS011;29616;51.950;8.572;2023-05-10T15:36:53;13.40;;;6.13;;
7440;SDS011;29616;51.950;8.572;2023-05-10T15:39:22;13.85;;;8.75;;
7440;SDS011;29616;51.950;8.572;2023-05-10T15:41:51;13.40;;;7.63;;